createdAt,value
2022-11-27T00:01:36.506Z,71.57
2022-11-27T00:04:06.478Z,70.79
2022-11-27T00:06:35.930Z,71.07
2022-11-27T00:09:05.289Z,71.17
2022-11-27T00:11:33.659Z,72.06
2022-11-27T00:14:02.154Z,71.43
2022-11-27T00:16:30.191Z,71.02
2022-11-27T00:18:59.174Z,70.53
2022-11-27T00:21:29.688Z,70.50
2022-11-27T00:23:59.730Z,70.09
2022-11-27T00:26:33.062Z,70.78
2022-11-27T00:29:04.333Z,70.34
2022-11-27T00:31:34.280Z,70.55
2022-11-27T00:34:05.301Z,70.30
2022-11-27T00:36:34.921Z,70.98
2022-11-27T00:39:03.945Z,71.94
2022-11-27T00:41:32.223Z,71.58
2022-11-27T00:44:00.159Z,72.09
2022-11-27T00:46:30.180Z,72.04
2022-11-27T00:48:59.980Z,72.64
2022-11-27T00:51:28.903Z,72.06
2022-11-27T00:53:57.399Z,72.02
2022-11-27T00:56:28.183Z,71.80
2022-11-27T00:58:56.655Z,71.66
2022-11-27T01:01:27.920Z,71.02
2022-11-27T01:04:00.661Z,70.73
2022-11-27T01:06:30.136Z,70.68
2022-11-27T01:08:59.193Z,71.26
2022-11-27T01:11:30.915Z,71.67
2022-11-27T01:14:02.259Z,71.41
2022-11-27T01:16:32.014Z,72.05
2022-11-27T01:19:02.163Z,71.80
2022-11-27T01:21:32.697Z,71.25
2022-11-27T01:24:02.062Z,70.96
2022-11-27T01:26:32.250Z,70.70
2022-11-27T01:29:00.740Z,71.14
2022-11-27T01:31:32.261Z,71.42
2022-11-27T01:34:07.881Z,71.43
2022-11-27T01:36:39.115Z,71.91
2022-11-27T01:39:07.339Z,71.77
2022-11-27T01:41:40.132Z,71.51
2022-11-27T01:44:26.360Z,72.90
2022-11-27T01:47:10.821Z,72.13
2022-11-27T01:49:43.037Z,72.54
2022-11-27T01:52:27.975Z,72.95
2022-11-27T01:55:04.728Z,72.98
2022-11-27T01:57:41.832Z,73.53
2022-11-27T02:00:13.784Z,73.41
2022-11-27T02:02:43.671Z,75.08
2022-11-27T02:05:17.498Z,75.89
2022-11-27T02:07:46.277Z,75.81
2022-11-27T02:10:14.933Z,75.33
2022-11-27T02:12:54.558Z,74.84
2022-11-27T02:15:46.723Z,74.05
2022-11-27T02:18:23.043Z,73.40
2022-11-27T02:21:02.378Z,73.29
2022-11-27T02:23:58.842Z,73.48
2022-11-27T02:26:38.788Z,73.88
2022-11-27T02:29:13.524Z,73.76
2022-11-27T02:32:18.785Z,73.43
2022-11-27T02:34:50.273Z,73.17
2022-11-27T02:37:36.933Z,73.42
2022-11-27T02:40:14.176Z,73.33
2022-11-27T02:43:08.940Z,72.85
2022-11-27T02:45:46.876Z,72.55
2022-11-27T02:48:19.147Z,73.00
2022-11-27T02:50:49.879Z,73.33
2022-11-27T02:53:26.394Z,73.68
2022-11-27T02:55:57.126Z,73.19
2022-11-27T03:01:32.617Z,74.01
2022-11-27T03:04:06.823Z,72.92
2022-11-27T03:06:42.115Z,73.04
2022-11-27T03:09:25.497Z,72.45
2022-11-27T03:11:53.840Z,72.73
2022-11-27T03:14:24.746Z,73.58
2022-11-27T03:17:18.209Z,73.71
2022-11-27T03:19:53.076Z,73.35
2022-11-27T03:22:21.253Z,73.82
2022-11-27T03:24:50.295Z,73.81
2022-11-27T03:27:24.254Z,74.57
2022-11-27T03:30:02.424Z,73.83
2022-11-27T03:32:32.091Z,73.94
2022-11-27T03:35:01.451Z,73.68
2022-11-27T03:37:29.631Z,73.22
2022-11-27T03:39:57.633Z,73.40
2022-11-27T03:42:33.830Z,74.09
2022-11-27T03:45:15.193Z,73.77
2022-11-27T03:48:16.799Z,74.46
2022-11-27T03:51:11.724Z,73.84
2022-11-27T03:53:42.615Z,74.43
2022-11-27T03:56:48.787Z,74.91
2022-11-27T03:59:29.441Z,75.54
2022-11-27T04:01:57.449Z,76.02
2022-11-27T04:04:25.920Z,76.45
2022-11-27T04:06:54.033Z,75.79
2022-11-27T04:09:21.948Z,74.63
2022-11-27T04:11:49.920Z,74.95
2022-11-27T04:14:17.975Z,75.06
2022-11-27T04:16:46.384Z,74.71
2022-11-27T04:19:14.388Z,73.13
2022-11-27T04:21:42.468Z,73.40
2022-11-27T04:24:10.490Z,73.93
2022-11-27T04:26:38.364Z,74.10
2022-11-27T04:29:06.428Z,73.74
2022-11-27T04:31:34.398Z,73.63
2022-11-27T04:34:02.595Z,73.68
2022-11-27T04:36:34.709Z,73.94
2022-11-27T04:39:05.644Z,74.15
2022-11-27T04:41:33.681Z,73.73
2022-11-27T04:44:01.536Z,73.41
2022-11-27T04:46:29.554Z,73.62
2022-11-27T04:48:57.647Z,73.43
2022-11-27T04:51:25.479Z,73.36
2022-11-27T04:53:53.345Z,72.92
2022-11-27T04:56:21.518Z,73.59
2022-11-27T04:58:49.394Z,73.58
2022-11-27T05:01:17.541Z,72.80
2022-11-27T05:03:47.675Z,73.29
2022-11-27T05:06:16.032Z,74.41
2022-11-27T05:08:44.001Z,73.55
2022-11-27T05:11:13.712Z,73.76
2022-11-27T05:13:42.774Z,74.22
2022-11-27T05:16:11.114Z,74.04
2022-11-27T05:18:39.087Z,74.29
2022-11-27T05:21:08.464Z,73.94
2022-11-27T05:23:36.193Z,74.14
2022-11-27T05:26:04.155Z,74.93
2022-11-27T05:28:32.139Z,74.10
2022-11-27T05:31:00.134Z,74.71
2022-11-27T05:33:28.125Z,74.31
2022-11-27T05:35:56.138Z,74.18
2022-11-27T05:38:23.909Z,74.05
2022-11-27T05:40:51.957Z,74.26
2022-11-27T05:43:20.015Z,74.75
2022-11-27T05:45:47.826Z,73.74
2022-11-27T05:48:15.773Z,73.56
2022-11-27T05:50:43.885Z,74.24
2022-11-27T05:53:11.688Z,74.23
2022-11-27T05:55:39.756Z,74.22
2022-11-27T05:58:07.676Z,74.12
2022-11-27T06:00:35.582Z,73.88
2022-11-27T06:03:03.749Z,73.77
2022-11-27T06:05:31.884Z,73.85
2022-11-27T06:07:59.808Z,73.29
2022-11-27T06:10:27.746Z,73.65
2022-11-27T06:12:55.760Z,73.13
2022-11-27T06:15:23.690Z,73.03
2022-11-27T06:17:51.810Z,73.08
2022-11-27T06:20:20.679Z,72.59
2022-11-27T06:22:48.540Z,72.48
2022-11-27T06:25:16.996Z,73.60
2022-11-27T06:27:45.036Z,74.11
2022-11-27T06:30:13.542Z,73.94
2022-11-27T06:32:41.822Z,73.01
2022-11-27T06:35:10.224Z,72.08
2022-11-27T06:37:38.132Z,72.35
2022-11-27T06:40:06.948Z,72.96
2022-11-27T06:42:34.836Z,72.91
2022-11-27T06:45:03.001Z,72.36
2022-11-27T06:47:30.806Z,72.71
2022-11-27T06:49:58.714Z,73.09
2022-11-27T06:52:26.615Z,73.10
2022-11-27T06:54:54.687Z,72.66
2022-11-27T06:57:22.691Z,73.07
2022-11-27T06:59:50.610Z,72.11
2022-11-27T07:02:18.648Z,73.14
2022-11-27T07:04:46.661Z,73.25
2022-11-27T07:07:17.265Z,72.40
2022-11-27T07:09:45.434Z,72.09
2022-11-27T07:12:13.537Z,72.68
2022-11-27T07:14:42.498Z,72.53
2022-11-27T07:17:10.589Z,72.66
2022-11-27T07:19:38.611Z,73.71
2022-11-27T07:22:06.768Z,73.12
2022-11-27T07:24:35.964Z,72.63
2022-11-27T07:27:04.132Z,71.61
2022-11-27T07:29:32.157Z,70.69
2022-11-27T07:32:00.560Z,70.63
2022-11-27T07:34:29.100Z,71.26
2022-11-27T07:36:57.030Z,71.78
2022-11-27T07:39:39.749Z,71.82
2022-11-27T07:45:01.598Z,71.21
2022-11-27T07:47:30.843Z,70.59
2022-11-27T07:50:00.643Z,70.48
2022-11-27T07:52:29.055Z,70.06
2022-11-27T07:54:57.396Z,70.52
2022-11-27T07:57:25.384Z,70.33
2022-11-27T07:59:53.317Z,69.95
2022-11-27T08:02:21.406Z,70.39
2022-11-27T08:04:49.721Z,70.27
2022-11-27T08:07:18.220Z,69.79
2022-11-27T08:09:46.243Z,69.90
2022-11-27T08:12:14.261Z,69.59
2022-11-27T08:14:42.539Z,69.64
2022-11-27T08:17:16.191Z,69.27
2022-11-27T08:19:44.237Z,69.85
2022-11-27T08:22:17.108Z,69.88
2022-11-27T08:24:46.783Z,69.53
2022-11-27T08:27:16.516Z,69.11
2022-11-27T08:29:44.745Z,69.17
2022-11-27T08:32:13.251Z,68.97
2022-11-27T08:34:41.842Z,68.62
2022-11-27T08:37:10.034Z,69.41
2022-11-27T08:39:38.002Z,69.06
2022-11-27T08:42:06.371Z,68.64
2022-11-27T08:44:34.360Z,69.01
2022-11-27T08:47:02.891Z,68.97
2022-11-27T08:49:31.509Z,69.14
2022-11-27T08:51:59.977Z,68.76
2022-11-27T08:54:28.129Z,68.44
2022-11-27T08:56:55.930Z,68.06
2022-11-27T08:59:24.057Z,67.10
2022-11-27T09:01:52.151Z,66.60
2022-11-27T09:04:20.931Z,65.85
2022-11-27T09:06:51.028Z,66.40
2022-11-27T09:09:21.221Z,64.99
2022-11-27T09:11:49.959Z,65.27
2022-11-27T09:14:18.223Z,64.73
2022-11-27T09:16:46.825Z,64.10
2022-11-27T09:19:14.920Z,64.53
2022-11-27T09:21:43.334Z,63.18
2022-11-27T09:24:11.855Z,62.89
2022-11-27T09:26:40.500Z,63.07
2022-11-27T09:29:08.931Z,64.50
2022-11-27T09:31:37.315Z,64.80
2022-11-27T09:34:06.599Z,63.73
2022-11-27T09:36:35.082Z,64.13
2022-11-27T09:39:04.237Z,62.57
2022-11-27T09:41:44.894Z,62.47
2022-11-27T09:44:28.104Z,61.99
2022-11-27T09:47:00.032Z,62.78
2022-11-27T09:49:37.035Z,62.61
2022-11-27T09:52:14.591Z,61.67
2022-11-27T09:55:11.736Z,61.66
2022-11-27T09:57:42.216Z,60.45
2022-11-27T10:00:20.058Z,60.05
2022-11-27T10:02:48.707Z,60.52
2022-11-27T10:05:22.005Z,60.28
2022-11-27T10:08:09.605Z,58.56
2022-11-27T10:11:01.987Z,56.67
2022-11-27T10:14:01.406Z,55.06
2022-11-27T10:16:39.024Z,55.05
2022-11-27T10:19:39.792Z,54.56
2022-11-27T10:22:45.014Z,54.77
2022-11-27T10:25:26.520Z,53.78
2022-11-27T10:28:27.714Z,55.18
2022-11-27T10:31:14.233Z,55.33
2022-11-27T10:33:54.114Z,54.63
2022-11-27T10:36:36.569Z,54.44
2022-11-27T10:39:11.826Z,53.72
2022-11-27T10:41:50.761Z,54.03
2022-11-27T10:44:36.631Z,53.17
2022-11-27T10:47:08.450Z,54.09
2022-11-27T10:49:40.828Z,54.29
2022-11-27T10:52:15.271Z,54.10
2022-11-27T10:54:46.297Z,54.55
2022-11-27T10:57:35.994Z,55.05
2022-11-27T11:00:19.197Z,54.89
2022-11-27T11:02:48.293Z,55.00
2022-11-27T11:08:20.775Z,55.15
2022-11-27T11:10:58.097Z,54.66
2022-11-27T11:13:28.924Z,55.07
2022-11-27T11:16:05.388Z,53.98
2022-11-27T11:18:50.886Z,53.48
2022-11-27T11:21:40.855Z,53.30
2022-11-27T11:24:26.654Z,53.75
2022-11-27T11:27:01.649Z,55.39
2022-11-27T11:29:41.685Z,55.25
2022-11-27T11:32:37.951Z,56.20
2022-11-27T11:35:27.932Z,56.59
2022-11-27T11:37:57.771Z,55.02
2022-11-27T11:40:31.588Z,54.29
2022-11-27T11:43:02.970Z,54.71
2022-11-27T11:45:34.100Z,54.34
2022-11-27T11:48:20.837Z,54.62
2022-11-27T11:50:56.238Z,53.21
2022-11-27T11:53:47.726Z,53.94
2022-11-27T11:56:33.941Z,54.04
2022-11-27T11:59:16.953Z,54.33
2022-11-27T12:02:18.688Z,54.86
2022-11-27T12:04:58.747Z,54.47
2022-11-27T12:07:51.995Z,55.96
2022-11-27T12:10:35.692Z,54.81
2022-11-27T12:13:33.190Z,55.25
2022-11-27T12:16:18.486Z,54.82
2022-11-27T12:19:05.700Z,55.46
2022-11-27T12:21:40.093Z,53.79
2022-11-27T12:24:08.585Z,54.59
2022-11-27T12:27:07.386Z,54.60
2022-11-27T12:29:54.226Z,54.25
2022-11-27T12:32:50.891Z,53.68
2022-11-27T12:35:32.801Z,53.70
2022-11-27T12:38:19.499Z,53.27
2022-11-27T12:41:24.895Z,53.04
2022-11-27T12:44:00.608Z,53.08
2022-11-27T12:47:01.267Z,54.48
2022-11-27T12:49:37.924Z,53.77
2022-11-27T12:52:19.281Z,54.56
2022-11-27T12:55:14.400Z,53.99
2022-11-27T12:57:51.770Z,54.01
2022-11-27T13:00:21.792Z,55.19
2022-11-27T13:02:56.672Z,54.13
2022-11-27T13:05:30.667Z,54.79
2022-11-27T13:08:06.628Z,53.13
2022-11-27T13:10:59.026Z,54.79
2022-11-27T13:13:36.076Z,52.69
2022-11-27T13:16:33.592Z,53.20
2022-11-27T13:19:12.924Z,53.80
2022-11-27T13:21:42.506Z,53.30
2022-11-27T13:24:13.809Z,53.99
2022-11-27T13:27:01.166Z,52.59
2022-11-27T13:29:44.591Z,52.58
2022-11-27T13:32:31.713Z,53.03
2022-11-27T13:35:04.066Z,52.29
2022-11-27T13:37:39.084Z,54.34
2022-11-27T13:40:12.951Z,53.75
2022-11-27T13:42:45.849Z,53.78
2022-11-27T13:45:27.282Z,54.35
2022-11-27T13:47:58.548Z,54.97
2022-11-27T13:50:31.034Z,54.43
2022-11-27T13:53:06.294Z,54.80
2022-11-27T13:55:40.436Z,55.82
2022-11-27T13:58:09.165Z,56.01
2022-11-27T14:00:43.981Z,55.48
2022-11-27T14:03:29.641Z,55.09
2022-11-27T14:05:58.420Z,55.84
2022-11-27T14:08:33.845Z,55.04
2022-11-27T14:11:09.191Z,55.89
2022-11-27T14:13:49.322Z,55.83
2022-11-27T14:16:37.608Z,55.99
2022-11-27T14:19:33.506Z,55.89
2022-11-27T14:22:32.665Z,56.85
2022-11-27T14:25:01.179Z,58.82
2022-11-27T14:27:36.154Z,56.54
2022-11-27T14:30:35.556Z,55.84
2022-11-27T14:33:05.383Z,56.16
2022-11-27T14:35:36.816Z,56.17
2022-11-27T14:38:15.840Z,58.31
2022-11-27T14:40:45.133Z,56.78
2022-11-27T14:43:19.301Z,56.92
2022-11-27T14:46:01.646Z,54.84
2022-11-27T14:48:44.428Z,55.93
2022-11-27T14:51:21.503Z,56.02
2022-11-27T14:53:54.317Z,56.92
2022-11-27T14:56:23.270Z,56.84
2022-11-27T14:58:52.938Z,57.62
2022-11-27T15:01:33.084Z,57.88
2022-11-27T15:04:01.957Z,55.16
2022-11-27T15:06:34.270Z,57.92
2022-11-27T15:09:30.282Z,58.24
2022-11-27T15:11:56.905Z,58.56
2022-11-27T15:14:28.971Z,59.60
2022-11-27T15:16:58.581Z,58.51
2022-11-27T15:19:29.931Z,59.69
2022-11-27T15:21:58.862Z,59.93
2022-11-27T15:24:34.515Z,60.08
2022-11-27T15:27:21.017Z,59.75
2022-11-27T15:29:55.198Z,60.48
2022-11-27T15:32:26.316Z,59.71
2022-11-27T15:34:55.215Z,58.63
2022-11-27T15:37:37.986Z,60.97
2022-11-27T15:40:39.010Z,59.23
2022-11-27T15:43:15.740Z,59.17
2022-11-27T15:45:44.970Z,58.89
2022-11-27T15:48:17.197Z,59.02
2022-11-27T15:50:51.430Z,58.80
2022-11-27T15:53:20.604Z,59.62
2022-11-27T15:55:48.999Z,59.33
2022-11-27T15:58:17.701Z,59.77
2022-11-27T16:00:46.159Z,59.71
2022-11-27T16:03:14.743Z,60.58
2022-11-27T16:05:43.505Z,60.61
2022-11-27T16:08:12.044Z,60.55
2022-11-27T16:10:42.140Z,61.14
2022-11-27T16:13:10.772Z,60.90
2022-11-27T16:15:40.160Z,60.80
2022-11-27T16:18:08.873Z,60.48
2022-11-27T16:20:37.325Z,60.92
2022-11-27T16:23:06.147Z,61.24
2022-11-27T16:25:34.446Z,60.80
2022-11-27T16:28:03.501Z,60.88
2022-11-27T16:30:32.346Z,60.61
2022-11-27T16:33:00.775Z,61.33
2022-11-27T16:35:29.379Z,61.02
2022-11-27T16:37:57.971Z,61.89
2022-11-27T16:40:27.718Z,61.51
2022-11-27T16:42:56.249Z,61.58
2022-11-27T16:45:24.888Z,61.44
2022-11-27T16:47:55.854Z,61.70
2022-11-27T16:50:26.937Z,61.33
2022-11-27T16:52:55.989Z,61.75
2022-11-27T16:55:26.463Z,62.02
2022-11-27T16:57:55.630Z,62.72
2022-11-27T17:00:23.858Z,63.61
2022-11-27T17:02:52.237Z,63.98
2022-11-27T17:05:21.012Z,64.37
2022-11-27T17:07:49.481Z,63.20
2022-11-27T17:10:18.235Z,63.23
2022-11-27T17:12:46.902Z,62.88
2022-11-27T17:15:15.404Z,62.98
2022-11-27T17:17:44.733Z,63.52
2022-11-27T17:20:13.461Z,64.29
2022-11-27T17:22:42.332Z,64.18
2022-11-27T17:25:11.489Z,63.77
2022-11-27T17:27:39.896Z,65.16
2022-11-27T17:30:09.960Z,64.07
2022-11-27T17:32:38.519Z,64.11
2022-11-27T17:35:07.292Z,65.01
2022-11-27T17:37:36.542Z,65.18
2022-11-27T17:40:05.820Z,65.19
2022-11-27T17:42:34.474Z,64.92
2022-11-27T17:45:02.913Z,65.27
2022-11-27T17:47:31.652Z,65.16
2022-11-27T17:50:00.686Z,64.07
2022-11-27T17:52:29.533Z,64.31
2022-11-27T17:54:58.324Z,63.63
2022-11-27T17:57:27.211Z,63.72
2022-11-27T17:59:55.526Z,64.34
2022-11-27T18:02:24.082Z,64.39
2022-11-27T18:04:52.744Z,64.59
2022-11-27T18:07:21.288Z,63.96
2022-11-27T18:09:54.547Z,64.80
2022-11-27T18:12:23.466Z,65.56
2022-11-27T18:14:57.915Z,64.80
2022-11-27T18:17:30.187Z,64.92
2022-11-27T18:19:59.329Z,64.65
2022-11-27T18:22:28.057Z,65.18
2022-11-27T18:24:56.717Z,65.09
2022-11-27T18:27:25.175Z,64.80
2022-11-27T18:29:53.643Z,64.22
2022-11-27T18:32:23.237Z,64.92
2022-11-27T18:34:54.840Z,64.75
2022-11-27T18:37:23.958Z,64.69
2022-11-27T18:39:52.274Z,64.50
2022-11-27T18:42:21.218Z,64.69
2022-11-27T18:44:49.719Z,64.57
2022-11-27T18:47:18.269Z,64.54
2022-11-27T18:49:48.314Z,64.79
2022-11-27T18:52:17.812Z,64.64
2022-11-27T18:54:46.739Z,65.22
2022-11-27T18:57:15.384Z,65.79
2022-11-27T18:59:44.377Z,65.56
2022-11-27T19:02:13.636Z,65.30
2022-11-27T19:04:44.639Z,65.17
2022-11-27T19:07:13.558Z,65.67
2022-11-27T19:09:42.389Z,65.56
2022-11-27T19:12:11.239Z,65.14
2022-11-27T19:14:40.570Z,66.03
2022-11-27T19:17:09.828Z,65.90
2022-11-27T19:19:54.984Z,66.21
2022-11-27T19:22:26.319Z,65.64
2022-11-27T19:24:57.428Z,65.99
2022-11-27T19:27:26.123Z,65.61
2022-11-27T19:29:54.906Z,66.94
2022-11-27T19:32:24.578Z,66.94
2022-11-27T19:34:53.154Z,67.10
2022-11-27T19:37:34.006Z,66.96
2022-11-27T19:40:06.795Z,66.71
2022-11-27T19:42:35.891Z,67.80
2022-11-27T19:45:04.766Z,67.32
2022-11-27T19:47:34.428Z,67.88
2022-11-27T19:50:03.353Z,67.53
2022-11-27T19:52:32.817Z,67.37
2022-11-27T19:55:01.151Z,67.99
2022-11-27T19:57:29.999Z,67.82
2022-11-27T19:59:59.725Z,67.66
2022-11-27T20:02:30.303Z,67.72
2022-11-27T20:04:59.742Z,69.93
2022-11-27T20:07:28.300Z,70.19
2022-11-27T20:09:56.851Z,70.30
2022-11-27T20:12:26.093Z,69.75
2022-11-27T20:14:54.425Z,69.74
2022-11-27T20:17:22.927Z,69.68
2022-11-27T20:19:52.593Z,69.92
2022-11-27T20:22:21.169Z,69.41
2022-11-27T20:25:17.234Z,69.77
2022-11-27T20:27:39.548Z,69.88
2022-11-27T20:30:08.832Z,69.41
2022-11-27T20:32:37.567Z,69.83
2022-11-27T20:35:06.289Z,69.77
2022-11-27T20:37:35.351Z,70.00
2022-11-27T20:40:05.000Z,70.08
2022-11-27T20:42:34.538Z,70.54
2022-11-27T20:45:05.331Z,70.54
2022-11-27T20:47:35.489Z,70.70
2022-11-27T20:50:06.373Z,71.19
2022-11-27T20:52:35.024Z,70.90
2022-11-27T20:55:03.639Z,71.02
2022-11-27T20:57:31.948Z,71.53
2022-11-27T20:59:59.872Z,71.88
2022-11-27T21:02:28.198Z,72.25
2022-11-27T21:04:57.440Z,72.79
2022-11-27T21:07:25.699Z,73.14
2022-11-27T21:09:54.938Z,72.91
2022-11-27T21:12:23.121Z,73.89
2022-11-27T21:14:52.289Z,74.18
2022-11-27T21:17:20.297Z,74.08
2022-11-27T21:19:49.479Z,74.25
2022-11-27T21:22:18.152Z,74.66
2022-11-27T21:24:46.409Z,74.91
2022-11-27T21:27:14.540Z,74.93
2022-11-27T21:29:42.781Z,74.95
2022-11-27T21:32:11.838Z,75.00
2022-11-27T21:34:40.787Z,75.04
2022-11-27T21:37:09.870Z,74.57
2022-11-27T21:39:38.853Z,75.21
2022-11-27T21:42:07.367Z,75.88
2022-11-27T21:44:35.875Z,76.26
2022-11-27T21:47:06.262Z,76.75
2022-11-27T21:49:34.441Z,76.77
2022-11-27T21:52:02.373Z,76.97
2022-11-27T21:54:34.137Z,76.78
2022-11-27T21:57:02.519Z,76.73
2022-11-27T21:59:30.688Z,76.80
2022-11-27T22:01:58.917Z,76.72
2022-11-27T22:04:27.199Z,76.38
2022-11-27T22:06:55.324Z,76.31
2022-11-27T22:09:23.371Z,77.09
2022-11-27T22:11:52.661Z,77.90
2022-11-27T22:14:21.108Z,77.54
2022-11-27T22:16:49.371Z,77.41
2022-11-27T22:19:17.689Z,77.44
2022-11-27T22:21:45.749Z,77.38
2022-11-27T22:24:19.252Z,77.26
2022-11-27T22:26:51.442Z,77.21
2022-11-27T22:29:19.951Z,77.32
2022-11-27T22:31:47.912Z,77.18
2022-11-27T22:34:16.769Z,77.60
2022-11-27T22:36:45.785Z,77.65
2022-11-27T22:39:14.328Z,77.30
2022-11-27T22:41:43.049Z,77.00
2022-11-27T22:44:23.156Z,77.48
2022-11-27T22:46:51.377Z,76.96
2022-11-27T22:49:19.543Z,77.26
2022-11-27T22:51:48.160Z,76.93
2022-11-27T22:54:20.095Z,76.98
2022-11-27T22:56:48.156Z,77.10
2022-11-27T22:59:34.097Z,77.39
2022-11-27T23:02:06.609Z,77.80
2022-11-27T23:04:36.303Z,77.42
2022-11-27T23:07:05.130Z,77.88
2022-11-27T23:09:34.032Z,77.80
2022-11-27T23:12:02.149Z,78.43
2022-11-27T23:14:30.374Z,77.81
2022-11-27T23:16:59.044Z,78.06
2022-11-27T23:19:27.108Z,77.74
2022-11-27T23:21:55.333Z,78.27
2022-11-27T23:24:23.185Z,77.89
2022-11-27T23:26:51.279Z,78.07
2022-11-27T23:29:19.229Z,78.69
2022-11-27T23:31:47.373Z,79.18
2022-11-27T23:34:16.291Z,79.23
2022-11-27T23:36:44.720Z,78.80
2022-11-27T23:39:14.377Z,78.65
2022-11-27T23:41:42.776Z,78.79
2022-11-27T23:44:11.206Z,78.54
2022-11-27T23:46:39.627Z,78.11
2022-11-27T23:49:07.753Z,77.96
2022-11-27T23:51:36.185Z,78.31
2022-11-27T23:54:09.424Z,79.09
2022-11-27T23:56:38.771Z,79.28
2022-11-27T23:59:06.681Z,78.87
